CPX252 Details

Departure: Washington Dulles International Airport (KIAD)
Arrival: Chicago/Rockford International Airport (KRFD)
Route: BUNZZ3 RAMAY Q72 HACKS J149 FWA V340 OXI JOT


Current Weather Information
KIAD 251152Z 14006KT 10SM BKN060 BKN075 19/12 A3019 RMK AO2 SLP222 T01940122 10194 20161 51015
KRFD 251154Z 20007KT 10SM BKN060 21/16 A2990 RMK AO2 SLP121 60000 70051 T02110161 10244 20194 51029